Tuesday, February 20, 2018, 10:34 AM EST
Back to Local

KACY, Atlantic City International

Location: Absecon, NJ, United States Lat: 39.467
Local Time: 10:34 AM EST (15:34 GMT) Lon: -74.583
Time Zone: US/Eastern Elev: 75 ft

Show me the last for .
Show Decoded

2018-02-20 09:54 METAR KACY 201454Z 23009KT 10SM OVC013 17/14 A3039 RMK AO2 SLP289 T01720144
                 51010 $ =
2018-02-20 08:54 METAR KACY 201354Z 23010KT 10SM OVC011 16/14 A3038 RMK AO2 CIG 008V014 SLP286
                 T01610144 $ =
2018-02-20 07:54 METAR KACY 201254Z 24009G17KT 10SM OVC005 15/14 A3037 RMK AO2 SLP285 T01500144 $
                 =
2018-02-20 07:10 METAR KACY 201210Z 22011G18KT 7SM OVC005 15/15 A3036 RMK AO2 T01500150 $ =
2018-02-20 06:54 METAR KACY 201154Z 23013G20KT 5SM BR OVC004 15/15 A3036 RMK AO2 SLP278 T01500150
                 10156 20111 53008 $ =
2018-02-20 05:54 METAR KACY 201054Z 22011G19KT 7SM OVC005 15/15 A3034 RMK AO2 SLP272 T01500150 $
                 =
2018-02-20 05:39 METAR KACY 201039Z 19007KT 5SM BR OVC003 14/14 A3033 RMK AO2 CIG 002V005
                 T01390139 $ =
2018-02-20 05:30 METAR KACY 201030Z 20007KT 2SM BR OVC003 13/13 A3033 RMK AO2 T01330133 $ =
2018-02-20 05:15 METAR KACY 201015Z 18006KT 1 1/4SM BR OVC003 13/13 A3033 RMK AO2 T01280128 $ =
2018-02-20 05:03 METAR KACY 201003Z 18005KT 1 1/2SM BR OVC003 12/12 A3033 RMK AO2 T01220122 $ =
2018-02-20 04:54 METAR KACY 200954Z 18006KT 2SM BR OVC004 12/12 A3033 RMK AO2 SLP270 T01220122 $
                 =
2018-02-20 03:54 METAR KACY 200854Z 19006KT 6SM BR OVC004 12/12 A3033 RMK AO2 SLP269 T01220122
                 56003 $ =
2018-02-20 03:50 METAR KACY 200850Z 18005KT 5SM BR OVC004 12/12 A3033 RMK AO2 $ =
2018-02-20 02:54 METAR KACY 200754Z 21005KT 7SM OVC008 11/11 A3033 RMK AO2 CIG 006V010 SLP271
                 T01110111 $ =
2018-02-20 02:31 METAR KACY 200731Z 21005KT 7SM OVC009 11/11 A3034 RMK AO2 T01110106 $ =
2018-02-20 02:08 METAR KACY 200708Z 20005KT 7SM BKN010 OVC014 11/11 A3034 RMK AO2 CIG 004V012
                 T01110106 $ =
2018-02-20 01:54 METAR KACY 200654Z 19005KT 6SM BR FEW006 OVC017 11/11 A3034 RMK AO2 SLP273
                 T01110111 $ =
2018-02-20 01:36 METAR KACY 200636Z 19006KT 6SM BR FEW003 OVC018 11/11 A3034 RMK AO2 T01110111 $
                 =
2018-02-20 00:54 METAR KACY 200554Z 20007KT 4SM BR OVC003 11/11 A3034 RMK AO2 SLP272 T01110111
                 10111 20100 58007 $ =
2018-02-20 00:35 METAR KACY 200535Z 21006KT 3SM BR OVC002 11/11 A3034 RMK AO2 T01110111 $ =
2018-02-19 23:54 METAR KACY 200454Z 20007KT 2SM BR OVC003 11/11 A3035 RMK AO2 SLP276 T01060106
                 401221028 $ =
2018-02-19 22:54 METAR KACY 200354Z 19007KT 7SM OVC004 11/11 A3036 RMK AO2 SLP279 T01060106 $ =
2018-02-19 21:54 METAR KACY 200254Z 20009G18KT 8SM OVC004 11/11 A3036 RMK AO2 SLP279 T01110106
                 56005 $ =
2018-02-19 21:02 METAR KACY 200202Z 19013G22KT 4SM BR OVC003 11/11 A3036 RMK AO2 T01110111 $ =
2018-02-19 20:54 METAR KACY 200154Z 20011G20KT 2 1/2SM BR OVC003 11/11 A3036 RMK AO2 SLP279
                 T01110111 $ =
2018-02-19 20:49 METAR KACY 200149Z 19012G20KT 2 1/2SM BR OVC003 11/11 A3035 RMK AO2 $ =
2018-02-19 20:39 METAR KACY 200139Z 19010KT 3SM BR OVC003 11/11 A3035 RMK AO2 T01060106 $ =
2018-02-19 19:54 METAR KACY 200054Z 19009G18KT 10SM OVC007 11/09 A3037 RMK AO2 SLP285 T01060094 $
                 =
2018-02-19 19:36 METAR KACY 200036Z 19008KT 9SM OVC009 10/09 A3037 RMK AO2 CIG 008V013 T01000094
                 $ =
2018-02-19 19:18 METAR KACY 200018Z 18009G16KT 5SM BR OVC014 10/09 A3037 =
2018-02-19 18:54 METAR KACY 192354Z 20006KT 10SM OVC017 11/09 A3038 RMK AO2 SLP288 60000
                 T01060094 10122 20106 58001 $ =
2018-02-19 17:54 METAR KACY 192254Z 18007KT 9SM BKN018 OVC024 11/09 A3038 RMK AO2 SLP287
                 T01060089 $ =
2018-02-19 17:05 METAR KACY 192205Z 19007KT 10SM OVC029 11/09 A3038 RMK AO2 T01110089 $ =
2018-02-19 16:54 METAR KACY 192154Z 20009KT 10SM OVC031 11/09 A3039 RMK AO2 SLP289 T01110089 $ =
2018-02-19 15:54 METAR KACY 192054Z 20010KT 10SM OVC034 11/09 A3038 RMK AO2 SLP289 60000
                 T01110089 56020 $ =
2018-02-19 14:54 METAR KACY 191954Z 19011KT 10SM FEW015 OVC036 12/09 A3039 RMK AO2 SLP291
                 T01170089 $ =
2018-02-19 13:54 METAR KACY 191854Z 18009KT 10SM FEW022 OVC040 12/08 A3041 RMK AO2 RAB11E22
                 SLP298 P0000 T01170083 $ =
2018-02-19 13:03 METAR KACY 191803Z 19008KT 10SM FEW028 OVC041 11/07 A3044 RMK AO2 T01110072 $ =
2018-02-19 12:54 METAR KACY 191754Z 20007KT 10SM BKN028 BKN034 OVC043 11/07 A3044 RMK AO2
                 RAB15E24 SLP309 P0000 60000 T01110072 10111 20000 58020 $ =
2018-02-19 12:38 METAR KACY 191738Z 19010KT 10SM BKN028 OVC045 11/07 A3045 =
2018-02-19 11:54 METAR KACY 191654Z 18009KT 10SM BKN049 OVC060 11/07 A3047 RMK AO2 SLP319
                 T01110067 $ =
2018-02-19 10:54 METAR KACY 191554Z 18009KT 10SM SCT050 BKN090 OVC110 11/06 A3049 RMK AO2 SLP326
                 T01060056 $ =

Support USWX by starting your Amazon purchase here.